sensor_id;sensor_type;location;lat;lon;timestamp;pressure;altitude;pressure_sealevel;temperature
76895;BMP280;65855;42.030;13.078;2023-02-13T00:02:23;95180.91;;;-0.44
76895;BMP280;65855;42.030;13.078;2023-02-13T00:04:49;95177.59;;;-0.50
76895;BMP280;65855;42.030;13.078;2023-02-13T00:07:14;95176.97;;;-1.60
76895;BMP280;65855;42.030;13.078;2023-02-13T00:09:40;95192.06;;;-1.77
76895;BMP280;65855;42.030;13.078;2023-02-13T00:12:06;95189.53;;;-1.69
76895;BMP280;65855;42.030;13.078;2023-02-13T00:14:38;95179.50;;;-1.31
76895;BMP280;65855;42.030;13.078;2023-02-13T00:17:05;95180.53;;;-1.62
76895;BMP280;65855;42.030;13.078;2023-02-13T00:19:31;95184.38;;;-2.34
76895;BMP280;65855;42.030;13.078;2023-02-13T00:21:56;95198.63;;;-2.14
76895;BMP280;65855;42.030;13.078;2023-02-13T00:24:22;95195.69;;;-2.09
76895;BMP280;65855;42.030;13.078;2023-02-13T00:26:47;95198.84;;;-2.23
76895;BMP280;65855;42.030;13.078;2023-02-13T00:29:12;95196.84;;;-1.97
76895;BMP280;65855;42.030;13.078;2023-02-13T00:31:38;95203.75;;;-1.93
76895;BMP280;65855;42.030;13.078;2023-02-13T00:34:03;95203.38;;;-2.04
76895;BMP280;65855;42.030;13.078;2023-02-13T00:36:29;95203.50;;;-1.54
76895;BMP280;65855;42.030;13.078;2023-02-13T00:38:54;95203.50;;;-1.76
76895;BMP280;65855;42.030;13.078;2023-02-13T00:41:20;95211.78;;;-1.11
76895;BMP280;65855;42.030;13.078;2023-02-13T00:43:46;95212.31;;;-1.73
76895;BMP280;65855;42.030;13.078;2023-02-13T00:46:12;95209.16;;;-1.09
76895;BMP280;65855;42.030;13.078;2023-02-13T00:48:37;95212.44;;;-1.97
76895;BMP280;65855;42.030;13.078;2023-02-13T00:51:04;95212.19;;;-1.58
76895;BMP280;65855;42.030;13.078;2023-02-13T00:53:30;95202.91;;;-1.78
76895;BMP280;65855;42.030;13.078;2023-02-13T00:55:55;95202.69;;;-1.46
76895;BMP280;65855;42.030;13.078;2023-02-13T00:58:21;95212.06;;;-1.64
76895;BMP280;65855;42.030;13.078;2023-02-13T01:00:47;95191.84;;;-1.45
76895;BMP280;65855;42.030;13.078;2023-02-13T01:03:14;95198.09;;;-0.56
76895;BMP280;65855;42.030;13.078;2023-02-13T01:05:40;95195.69;;;-1.43
76895;BMP280;65855;42.030;13.078;2023-02-13T01:08:06;95200.81;;;-0.80
76895;BMP280;65855;42.030;13.078;2023-02-13T01:10:32;95192.19;;;-0.98
76895;BMP280;65855;42.030;13.078;2023-02-13T01:12:57;95187.41;;;-0.43
76895;BMP280;65855;42.030;13.078;2023-02-13T01:15:23;95187.84;;;-0.96
76895;BMP280;65855;42.030;13.078;2023-02-13T01:17:48;95203.06;;;-1.57
76895;BMP280;65855;42.030;13.078;2023-02-13T01:20:14;95192.72;;;-1.39
76895;BMP280;65855;42.030;13.078;2023-02-13T01:22:40;95197.75;;;-0.53
76895;BMP280;65855;42.030;13.078;2023-02-13T01:25:09;95186.66;;;-0.86
76895;BMP280;65855;42.030;13.078;2023-02-13T01:27:34;95192.78;;;-1.46
76895;BMP280;65855;42.030;13.078;2023-02-13T01:30:00;95194.25;;;-1.01
76895;BMP280;65855;42.030;13.078;2023-02-13T01:32:25;95192.44;;;-0.93
76895;BMP280;65855;42.030;13.078;2023-02-13T01:34:51;95189.72;;;-0.84
76895;BMP280;65855;42.030;13.078;2023-02-13T01:37:16;95178.19;;;-1.42
76895;BMP280;65855;42.030;13.078;2023-02-13T01:39:42;95173.69;;;-0.88
76895;BMP280;65855;42.030;13.078;2023-02-13T01:42:15;95170.44;;;-1.02
76895;BMP280;65855;42.030;13.078;2023-02-13T01:44:55;95175.91;;;-1.87
76895;BMP280;65855;42.030;13.078;2023-02-13T01:47:38;95170.97;;;-1.65
76895;BMP280;65855;42.030;13.078;2023-02-13T01:52:40;95173.19;;;-1.70
76895;BMP280;65855;42.030;13.078;2023-02-13T01:55:08;95187.50;;;-1.88
76895;BMP280;65855;42.030;13.078;2023-02-13T01:57:36;95174.16;;;-1.57
76895;BMP280;65855;42.030;13.078;2023-02-13T02:00:09;95176.03;;;-1.81
76895;BMP280;65855;42.030;13.078;2023-02-13T02:02:38;95171.47;;;-1.47
76895;BMP280;65855;42.030;13.078;2023-02-13T02:05:07;95173.00;;;-1.68
76895;BMP280;65855;42.030;13.078;2023-02-13T02:07:33;95174.72;;;-1.69
76895;BMP280;65855;42.030;13.078;2023-02-13T02:10:09;95181.31;;;-1.84
76895;BMP280;65855;42.030;13.078;2023-02-13T02:13:05;95182.16;;;-1.33
76895;BMP280;65855;42.030;13.078;2023-02-13T02:15:31;95182.84;;;-1.83
76895;BMP280;65855;42.030;13.078;2023-02-13T02:17:57;95178.88;;;-1.69
76895;BMP280;65855;42.030;13.078;2023-02-13T02:20:34;95179.72;;;-2.29
76895;BMP280;65855;42.030;13.078;2023-02-13T02:23:16;95193.00;;;-1.78
76895;BMP280;65855;42.030;13.078;2023-02-13T02:36:43;95193.84;;;-1.63
76895;BMP280;65855;42.030;13.078;2023-02-13T02:39:43;95188.78;;;-1.47
76895;BMP280;65855;42.030;13.078;2023-02-13T02:42:09;95191.69;;;-1.30
76895;BMP280;65855;42.030;13.078;2023-02-13T02:44:41;95195.31;;;-1.18
76895;BMP280;65855;42.030;13.078;2023-02-13T02:50:27;95187.41;;;-1.36
76895;BMP280;65855;42.030;13.078;2023-02-13T02:53:08;95189.88;;;-1.94
76895;BMP280;65855;42.030;13.078;2023-02-13T02:58:15;95204.34;;;-2.13
76895;BMP280;65855;42.030;13.078;2023-02-13T03:01:02;95210.19;;;-1.84
76895;BMP280;65855;42.030;13.078;2023-02-13T03:03:48;95213.31;;;-1.68
76895;BMP280;65855;42.030;13.078;2023-02-13T03:07:00;95213.56;;;-1.77
76895;BMP280;65855;42.030;13.078;2023-02-13T03:09:38;95211.72;;;-2.05
76895;BMP280;65855;42.030;13.078;2023-02-13T03:12:28;95208.06;;;-1.29
76895;BMP280;65855;42.030;13.078;2023-02-13T03:15:13;95210.31;;;-1.56
76895;BMP280;65855;42.030;13.078;2023-02-13T03:17:38;95203.44;;;-2.20
76895;BMP280;65855;42.030;13.078;2023-02-13T03:20:44;95215.78;;;-1.68
76895;BMP280;65855;42.030;13.078;2023-02-13T03:32:23;95212.72;;;-1.70
76895;BMP280;65855;42.030;13.078;2023-02-13T03:35:19;95206.69;;;-1.68
76895;BMP280;65855;42.030;13.078;2023-02-13T03:38:26;95209.16;;;-1.90
76895;BMP280;65855;42.030;13.078;2023-02-13T03:41:02;95203.81;;;-1.57
76895;BMP280;65855;42.030;13.078;2023-02-13T03:43:56;95206.44;;;-2.02
76895;BMP280;65855;42.030;13.078;2023-02-13T03:46:26;95208.00;;;-1.57
76895;BMP280;65855;42.030;13.078;2023-02-13T03:48:53;95209.59;;;-2.16
76895;BMP280;65855;42.030;13.078;2023-02-13T03:51:43;95203.91;;;-1.94
76895;BMP280;65855;42.030;13.078;2023-02-13T03:54:34;95208.91;;;-2.32
76895;BMP280;65855;42.030;13.078;2023-02-13T03:57:23;95212.88;;;-2.23
76895;BMP280;65855;42.030;13.078;2023-02-13T04:00:10;95213.97;;;-2.26
76895;BMP280;65855;42.030;13.078;2023-02-13T04:02:43;95219.41;;;-2.38
76895;BMP280;65855;42.030;13.078;2023-02-13T04:05:16;95222.16;;;-2.71
76895;BMP280;65855;42.030;13.078;2023-02-13T04:07:43;95219.34;;;-2.60
76895;BMP280;65855;42.030;13.078;2023-02-13T04:10:13;95224.56;;;-2.47
76895;BMP280;65855;42.030;13.078;2023-02-13T04:12:56;95218.19;;;-2.34
76895;BMP280;65855;42.030;13.078;2023-02-13T04:18:14;95219.19;;;-2.51
76895;BMP280;65855;42.030;13.078;2023-02-13T04:20:42;95220.91;;;-1.69
76895;BMP280;65855;42.030;13.078;2023-02-13T04:23:10;95225.53;;;-2.18
76895;BMP280;65855;42.030;13.078;2023-02-13T04:25:38;95221.41;;;-2.34
76895;BMP280;65855;42.030;13.078;2023-02-13T04:28:03;95227.16;;;-2.41
76895;BMP280;65855;42.030;13.078;2023-02-13T04:30:29;95217.75;;;-2.45
76895;BMP280;65855;42.030;13.078;2023-02-13T04:32:55;95227.06;;;-2.55
76895;BMP280;65855;42.030;13.078;2023-02-13T04:35:20;95233.19;;;-2.51
76895;BMP280;65855;42.030;13.078;2023-02-13T04:37:46;95234.50;;;-2.63
76895;BMP280;65855;42.030;13.078;2023-02-13T04:40:11;95228.97;;;-2.73
76895;BMP280;65855;42.030;13.078;2023-02-13T04:42:37;95228.41;;;-2.45
76895;BMP280;65855;42.030;13.078;2023-02-13T04:45:02;95232.44;;;-2.14
76895;BMP280;65855;42.030;13.078;2023-02-13T04:47:28;95234.78;;;-2.50
76895;BMP280;65855;42.030;13.078;2023-02-13T04:49:53;95233.47;;;-2.76
76895;BMP280;65855;42.030;13.078;2023-02-13T04:52:19;95232.88;;;-2.40
76895;BMP280;65855;42.030;13.078;2023-02-13T04:54:44;95227.59;;;-2.30
76895;BMP280;65855;42.030;13.078;2023-02-13T04:57:09;95226.59;;;-2.21
76895;BMP280;65855;42.030;13.078;2023-02-13T04:59:35;95227.88;;;-2.33
76895;BMP280;65855;42.030;13.078;2023-02-13T05:02:00;95235.72;;;-2.21
76895;BMP280;65855;42.030;13.078;2023-02-13T05:04:26;95226.81;;;-2.30
76895;BMP280;65855;42.030;13.078;2023-02-13T05:06:53;95221.63;;;-1.61
76895;BMP280;65855;42.030;13.078;2023-02-13T05:09:18;95215.91;;;-1.84
76895;BMP280;65855;42.030;13.078;2023-02-13T05:11:44;95225.34;;;-1.87
76895;BMP280;65855;42.030;13.078;2023-02-13T05:14:09;95230.47;;;-2.18
76895;BMP280;65855;42.030;13.078;2023-02-13T05:16:35;95237.09;;;-1.89
76895;BMP280;65855;42.030;13.078;2023-02-13T05:19:01;95236.97;;;-2.25
76895;BMP280;65855;42.030;13.078;2023-02-13T05:21:26;95243.09;;;-2.51
76895;BMP280;65855;42.030;13.078;2023-02-13T05:24:10;95239.25;;;-2.54
76895;BMP280;65855;42.030;13.078;2023-02-13T05:26:36;95249.59;;;-2.58
76895;BMP280;65855;42.030;13.078;2023-02-13T05:29:01;95248.56;;;-2.79
76895;BMP280;65855;42.030;13.078;2023-02-13T05:31:50;95254.88;;;-2.69
76895;BMP280;65855;42.030;13.078;2023-02-13T05:34:17;95250.72;;;-2.76
76895;BMP280;65855;42.030;13.078;2023-02-13T05:36:42;95249.63;;;-2.66
76895;BMP280;65855;42.030;13.078;2023-02-13T05:39:08;95251.16;;;-2.57
76895;BMP280;65855;42.030;13.078;2023-02-13T05:41:33;95257.91;;;-2.51
76895;BMP280;65855;42.030;13.078;2023-02-13T05:43:59;95258.78;;;-2.44
76895;BMP280;65855;42.030;13.078;2023-02-13T05:46:24;95268.88;;;-2.62
76895;BMP280;65855;42.030;13.078;2023-02-13T05:48:51;95269.06;;;-2.63
76895;BMP280;65855;42.030;13.078;2023-02-13T05:51:17;95268.28;;;-2.63
76895;BMP280;65855;42.030;13.078;2023-02-13T05:53:43;95269.88;;;-2.25
76895;BMP280;65855;42.030;13.078;2023-02-13T05:56:08;95277.97;;;-2.54
76895;BMP280;65855;42.030;13.078;2023-02-13T05:58:34;95284.00;;;-2.64
76895;BMP280;65855;42.030;13.078;2023-02-13T06:00:59;95284.28;;;-2.52
76895;BMP280;65855;42.030;13.078;2023-02-13T06:03:27;95275.75;;;-2.34
76895;BMP280;65855;42.030;13.078;2023-02-13T06:05:53;95279.75;;;-2.25
76895;BMP280;65855;42.030;13.078;2023-02-13T06:08:19;95283.50;;;-2.52
76895;BMP280;65855;42.030;13.078;2023-02-13T06:10:45;95283.47;;;-2.44
76895;BMP280;65855;42.030;13.078;2023-02-13T06:13:11;95279.03;;;-2.49
76895;BMP280;65855;42.030;13.078;2023-02-13T06:15:37;95288.59;;;-1.48
76895;BMP280;65855;42.030;13.078;2023-02-13T06:18:02;95290.22;;;-1.85
76895;BMP280;65855;42.030;13.078;2023-02-13T06:20:27;95291.75;;;-2.22
76895;BMP280;65855;42.030;13.078;2023-02-13T06:22:53;95299.09;;;-2.06
76895;BMP280;65855;42.030;13.078;2023-02-13T06:25:18;95297.19;;;-1.89
76895;BMP280;65855;42.030;13.078;2023-02-13T06:27:44;95301.91;;;-2.09
76895;BMP280;65855;42.030;13.078;2023-02-13T06:30:10;95302.38;;;-2.75
76895;BMP280;65855;42.030;13.078;2023-02-13T06:32:36;95310.41;;;-2.96
76895;BMP280;65855;42.030;13.078;2023-02-13T06:35:02;95313.81;;;-2.97
76895;BMP280;65855;42.030;13.078;2023-02-13T06:37:27;95314.84;;;-2.53
76895;BMP280;65855;42.030;13.078;2023-02-13T06:39:52;95324.06;;;-2.39
76895;BMP280;65855;42.030;13.078;2023-02-13T06:42:18;95319.06;;;-2.16
76895;BMP280;65855;42.030;13.078;2023-02-13T06:44:43;95327.97;;;-2.07
76895;BMP280;65855;42.030;13.078;2023-02-13T06:47:09;95329.34;;;-1.96
76895;BMP280;65855;42.030;13.078;2023-02-13T06:49:34;95330.88;;;-1.95
76895;BMP280;65855;42.030;13.078;2023-02-13T06:52:00;95326.19;;;-1.83
76895;BMP280;65855;42.030;13.078;2023-02-13T06:54:25;95333.03;;;-1.63
76895;BMP280;65855;42.030;13.078;2023-02-13T06:56:51;95333.19;;;-1.12
76895;BMP280;65855;42.030;13.078;2023-02-13T06:59:16;95339.44;;;-0.80
76895;BMP280;65855;42.030;13.078;2023-02-13T07:01:41;95334.81;;;-0.47
76895;BMP280;65855;42.030;13.078;2023-02-13T07:04:07;95337.88;;;-0.59
76895;BMP280;65855;42.030;13.078;2023-02-13T07:06:32;95343.97;;;-0.33
76895;BMP280;65855;42.030;13.078;2023-02-13T07:09:00;95340.78;;;0.44
76895;BMP280;65855;42.030;13.078;2023-02-13T07:11:26;95345.91;;;0.43
76895;BMP280;65855;42.030;13.078;2023-02-13T07:13:51;95338.50;;;0.28
76895;BMP280;65855;42.030;13.078;2023-02-13T07:16:17;95336.19;;;1.17
76895;BMP280;65855;42.030;13.078;2023-02-13T07:18:42;95338.63;;;1.91
76895;BMP280;65855;42.030;13.078;2023-02-13T07:21:08;95340.19;;;1.39
76895;BMP280;65855;42.030;13.078;2023-02-13T07:23:33;95345.13;;;1.12
76895;BMP280;65855;42.030;13.078;2023-02-13T07:25:59;95342.47;;;1.40
76895;BMP280;65855;42.030;13.078;2023-02-13T07:28:25;95335.81;;;2.40
76895;BMP280;65855;42.030;13.078;2023-02-13T07:30:51;95338.06;;;1.90
76895;BMP280;65855;42.030;13.078;2023-02-13T07:33:16;95337.53;;;2.00
76895;BMP280;65855;42.030;13.078;2023-02-13T07:35:47;95326.63;;;3.44
76895;BMP280;65855;42.030;13.078;2023-02-13T07:38:12;95336.75;;;4.56
76895;BMP280;65855;42.030;13.078;2023-02-13T07:40:38;95324.84;;;5.49
76895;BMP280;65855;42.030;13.078;2023-02-13T07:43:03;95332.25;;;4.77
76895;BMP280;65855;42.030;13.078;2023-02-13T07:45:29;95329.50;;;5.70
76895;BMP280;65855;42.030;13.078;2023-02-13T07:47:55;95331.25;;;5.39
76895;BMP280;65855;42.030;13.078;2023-02-13T07:50:20;95344.59;;;5.03
76895;BMP280;65855;42.030;13.078;2023-02-13T07:53:00;95345.81;;;4.87
76895;BMP280;65855;42.030;13.078;2023-02-13T07:55:27;95350.25;;;4.85
76895;BMP280;65855;42.030;13.078;2023-02-13T07:57:53;95340.03;;;5.24
76895;BMP280;65855;42.030;13.078;2023-02-13T08:00:20;95342.88;;;5.03
76895;BMP280;65855;42.030;13.078;2023-02-13T08:02:46;95341.06;;;5.64
76895;BMP280;65855;42.030;13.078;2023-02-13T08:05:11;95340.78;;;6.38
76895;BMP280;65855;42.030;13.078;2023-02-13T08:07:37;95334.59;;;7.16
76895;BMP280;65855;42.030;13.078;2023-02-13T08:10:06;95337.72;;;7.51
76895;BMP280;65855;42.030;13.078;2023-02-13T08:12:51;95334.94;;;8.15
76895;BMP280;65855;42.030;13.078;2023-02-13T08:15:17;95331.63;;;8.88
76895;BMP280;65855;42.030;13.078;2023-02-13T08:17:42;95332.25;;;9.11
76895;BMP280;65855;42.030;13.078;2023-02-13T08:20:08;95328.13;;;9.05
76895;BMP280;65855;42.030;13.078;2023-02-13T08:22:38;95335.59;;;8.61
76895;BMP280;65855;42.030;13.078;2023-02-13T08:25:05;95336.75;;;7.64
76895;BMP280;65855;42.030;13.078;2023-02-13T08:27:30;95327.38;;;8.27
76895;BMP280;65855;42.030;13.078;2023-02-13T08:29:56;95335.88;;;9.90
76895;BMP280;65855;42.030;13.078;2023-02-13T08:32:23;95328.09;;;10.71
76895;BMP280;65855;42.030;13.078;2023-02-13T08:34:49;95320.47;;;11.65
76895;BMP280;65855;42.030;13.078;2023-02-13T08:37:15;95323.94;;;11.95
76895;BMP280;65855;42.030;13.078;2023-02-13T08:39:41;95316.69;;;13.39
76895;BMP280;65855;42.030;13.078;2023-02-13T08:42:06;95315.56;;;12.91
76895;BMP280;65855;42.030;13.078;2023-02-13T08:44:32;95318.22;;;13.40
76895;BMP280;65855;42.030;13.078;2023-02-13T08:46:57;95318.16;;;13.15
76895;BMP280;65855;42.030;13.078;2023-02-13T08:49:26;95312.91;;;11.13
76895;BMP280;65855;42.030;13.078;2023-02-13T08:51:51;95328.47;;;11.31
76895;BMP280;65855;42.030;13.078;2023-02-13T08:54:17;95328.72;;;10.41
76895;BMP280;65855;42.030;13.078;2023-02-13T08:56:42;95328.53;;;9.73
76895;BMP280;65855;42.030;13.078;2023-02-13T08:59:08;95332.72;;;9.67
76895;BMP280;65855;42.030;13.078;2023-02-13T09:01:33;95338.97;;;10.51
76895;BMP280;65855;42.030;13.078;2023-02-13T09:03:59;95339.38;;;12.39
76895;BMP280;65855;42.030;13.078;2023-02-13T09:06:24;95342.25;;;9.65
76895;BMP280;65855;42.030;13.078;2023-02-13T09:08:52;95348.53;;;8.53
76895;BMP280;65855;42.030;13.078;2023-02-13T09:11:18;95351.97;;;8.36
76895;BMP280;65855;42.030;13.078;2023-02-13T09:13:47;95343.38;;;8.60
76895;BMP280;65855;42.030;13.078;2023-02-13T09:16:12;95355.28;;;8.64
76895;BMP280;65855;42.030;13.078;2023-02-13T09:18:38;95353.81;;;8.40
76895;BMP280;65855;42.030;13.078;2023-02-13T09:21:06;95344.94;;;10.87
76895;BMP280;65855;42.030;13.078;2023-02-13T09:23:33;95335.25;;;11.26
76895;BMP280;65855;42.030;13.078;2023-02-13T09:26:01;95330.56;;;13.02
76895;BMP280;65855;42.030;13.078;2023-02-13T09:28:28;95329.00;;;12.41
76895;BMP280;65855;42.030;13.078;2023-02-13T09:30:54;95331.56;;;12.96
76895;BMP280;65855;42.030;13.078;2023-02-13T09:33:19;95323.28;;;13.40
76895;BMP280;65855;42.030;13.078;2023-02-13T09:35:45;95318.97;;;13.40
76895;BMP280;65855;42.030;13.078;2023-02-13T09:38:10;95313.91;;;12.55
76895;BMP280;65855;42.030;13.078;2023-02-13T09:43:14;95308.81;;;14.18
76895;BMP280;65855;42.030;13.078;2023-02-13T09:45:43;95316.16;;;14.20
76895;BMP280;65855;42.030;13.078;2023-02-13T09:48:17;95317.47;;;12.54
76895;BMP280;65855;42.030;13.078;2023-02-13T09:50:43;95325.53;;;13.21
76895;BMP280;65855;42.030;13.078;2023-02-13T09:53:18;95316.94;;;14.88
76895;BMP280;65855;42.030;13.078;2023-02-13T09:55:54;95311.91;;;16.70
76895;BMP280;65855;42.030;13.078;2023-02-13T10:06:46;95310.28;;;14.39
76895;BMP280;65855;42.030;13.078;2023-02-13T10:09:30;95305.81;;;15.97
76895;BMP280;65855;42.030;13.078;2023-02-13T10:14:50;95298.47;;;18.49
76895;BMP280;65855;42.030;13.078;2023-02-13T10:17:22;95295.47;;;17.04
76895;BMP280;65855;42.030;13.078;2023-02-13T10:20:01;95294.25;;;17.19
76895;BMP280;65855;42.030;13.078;2023-02-13T10:23:20;95295.13;;;17.28
76895;BMP280;65855;42.030;13.078;2023-02-13T10:25:52;95292.50;;;19.06
76895;BMP280;65855;42.030;13.078;2023-02-13T10:28:29;95284.78;;;20.06
76895;BMP280;65855;42.030;13.078;2023-02-13T10:30:58;95282.22;;;20.06
76895;BMP280;65855;42.030;13.078;2023-02-13T10:33:27;95275.63;;;19.40
76895;BMP280;65855;42.030;13.078;2023-02-13T10:36:06;95271.75;;;19.08
76895;BMP280;65855;42.030;13.078;2023-02-13T10:38:54;95268.28;;;19.90
76895;BMP280;65855;42.030;13.078;2023-02-13T11:00:28;95251.56;;;20.61
76895;BMP280;65855;42.030;13.078;2023-02-13T11:02:58;95239.50;;;20.53
76895;BMP280;65855;42.030;13.078;2023-02-13T11:05:29;95235.13;;;20.15
76895;BMP280;65855;42.030;13.078;2023-02-13T11:07:56;95236.59;;;20.08
76895;BMP280;65855;42.030;13.078;2023-02-13T11:10:23;95234.28;;;20.91
76895;BMP280;65855;42.030;13.078;2023-02-13T11:12:51;95230.78;;;21.70
76895;BMP280;65855;42.030;13.078;2023-02-13T11:15:22;95234.84;;;21.80
76895;BMP280;65855;42.030;13.078;2023-02-13T11:17:47;95232.50;;;22.20
76895;BMP280;65855;42.030;13.078;2023-02-13T11:20:33;95232.19;;;22.21
76895;BMP280;65855;42.030;13.078;2023-02-13T11:25:40;95235.59;;;22.70
76895;BMP280;65855;42.030;13.078;2023-02-13T11:28:09;95237.47;;;17.77
76895;BMP280;65855;42.030;13.078;2023-02-13T11:30:40;95233.94;;;19.91
76895;BMP280;65855;42.030;13.078;2023-02-13T11:33:17;95231.56;;;19.43
76895;BMP280;65855;42.030;13.078;2023-02-13T11:35:45;95226.44;;;21.04
76895;BMP280;65855;42.030;13.078;2023-02-13T11:40:41;95227.88;;;20.55
76895;BMP280;65855;42.030;13.078;2023-02-13T11:43:29;95228.22;;;22.32
76895;BMP280;65855;42.030;13.078;2023-02-13T11:46:04;95220.75;;;23.16
76895;BMP280;65855;42.030;13.078;2023-02-13T11:48:30;95211.72;;;24.17
76895;BMP280;65855;42.030;13.078;2023-02-13T11:50:56;95209.59;;;24.19
76895;BMP280;65855;42.030;13.078;2023-02-13T11:53:24;95215.81;;;24.42
76895;BMP280;65855;42.030;13.078;2023-02-13T11:56:01;95208.72;;;25.25
76895;BMP280;65855;42.030;13.078;2023-02-13T11:58:28;95198.56;;;25.58
76895;BMP280;65855;42.030;13.078;2023-02-13T12:01:29;95197.25;;;26.06
76895;BMP280;65855;42.030;13.078;2023-02-13T12:04:06;95197.34;;;26.74
76895;BMP280;65855;42.030;13.078;2023-02-13T12:06:38;95199.63;;;25.42
76895;BMP280;65855;42.030;13.078;2023-02-13T12:09:10;95197.38;;;19.18
76895;BMP280;65855;42.030;13.078;2023-02-13T12:11:51;95206.38;;;20.81
76895;BMP280;65855;42.030;13.078;2023-02-13T12:14:24;95190.84;;;23.87
76895;BMP280;65855;42.030;13.078;2023-02-13T12:16:56;95185.53;;;23.72
76895;BMP280;65855;42.030;13.078;2023-02-13T12:19:29;95180.88;;;25.45
76895;BMP280;65855;42.030;13.078;2023-02-13T12:41:36;95152.41;;;28.45
76895;BMP280;65855;42.030;13.078;2023-02-13T12:44:02;95150.91;;;28.72
76895;BMP280;65855;42.030;13.078;2023-02-13T13:03:10;95136.41;;;28.17
76895;BMP280;65855;42.030;13.078;2023-02-13T13:11:41;95134.41;;;29.16
76895;BMP280;65855;42.030;13.078;2023-02-13T13:22:54;95129.81;;;30.73
76895;BMP280;65855;42.030;13.078;2023-02-13T13:28:16;95140.75;;;28.61
76895;BMP280;65855;42.030;13.078;2023-02-13T13:30:44;95135.81;;;29.43
76895;BMP280;65855;42.030;13.078;2023-02-13T13:33:19;95135.63;;;30.50
76895;BMP280;65855;42.030;13.078;2023-02-13T13:38:56;95119.81;;;30.19
76895;BMP280;65855;42.030;13.078;2023-02-13T13:44:18;95141.84;;;28.60
76895;BMP280;65855;42.030;13.078;2023-02-13T13:47:10;95133.91;;;29.72
76895;BMP280;65855;42.030;13.078;2023-02-13T13:49:54;95144.44;;;23.75
76895;BMP280;65855;42.030;13.078;2023-02-13T13:52:27;95132.97;;;25.48
76895;BMP280;65855;42.030;13.078;2023-02-13T13:54:54;95130.81;;;26.59
76895;BMP280;65855;42.030;13.078;2023-02-13T13:57:23;95138.94;;;22.41
76895;BMP280;65855;42.030;13.078;2023-02-13T14:00:21;95132.31;;;25.51
76895;BMP280;65855;42.030;13.078;2023-02-13T14:02:49;95128.38;;;28.03
76895;BMP280;65855;42.030;13.078;2023-02-13T14:05:20;95133.09;;;30.07
76895;BMP280;65855;42.030;13.078;2023-02-13T14:07:48;95128.75;;;30.21
76895;BMP280;65855;42.030;13.078;2023-02-13T14:12:59;95135.25;;;28.66
76895;BMP280;65855;42.030;13.078;2023-02-13T14:17:59;95137.75;;;27.86
76895;BMP280;65855;42.030;13.078;2023-02-13T14:23:28;95138.53;;;27.90
76895;BMP280;65855;42.030;13.078;2023-02-13T14:31:26;95143.97;;;27.03
76895;BMP280;65855;42.030;13.078;2023-02-13T14:34:01;95143.38;;;27.28
76895;BMP280;65855;42.030;13.078;2023-02-13T14:36:30;95146.69;;;25.09
76895;BMP280;65855;42.030;13.078;2023-02-13T14:44:30;95142.22;;;25.49
76895;BMP280;65855;42.030;13.078;2023-02-13T14:46:58;95159.25;;;24.72
76895;BMP280;65855;42.030;13.078;2023-02-13T14:49:29;95151.97;;;26.12
76895;BMP280;65855;42.030;13.078;2023-02-13T14:51:58;95148.94;;;26.10
76895;BMP280;65855;42.030;13.078;2023-02-13T14:54:30;95159.41;;;22.01
76895;BMP280;65855;42.030;13.078;2023-02-13T14:59:42;95161.94;;;17.49
76895;BMP280;65855;42.030;13.078;2023-02-13T15:05:05;95171.28;;;13.25
76895;BMP280;65855;42.030;13.078;2023-02-13T15:07:36;95168.97;;;12.79
76895;BMP280;65855;42.030;13.078;2023-02-13T15:10:26;95175.31;;;13.11
76895;BMP280;65855;42.030;13.078;2023-02-13T15:12:58;95176.00;;;11.83
76895;BMP280;65855;42.030;13.078;2023-02-13T15:15:26;95181.78;;;11.74
76895;BMP280;65855;42.030;13.078;2023-02-13T15:17:58;95185.09;;;11.79
76895;BMP280;65855;42.030;13.078;2023-02-13T15:20:26;95179.88;;;11.50
76895;BMP280;65855;42.030;13.078;2023-02-13T15:22:53;95178.00;;;11.04
76895;BMP280;65855;42.030;13.078;2023-02-13T15:25:38;95179.19;;;10.61
76895;BMP280;65855;42.030;13.078;2023-02-13T15:28:06;95182.03;;;10.44
76895;BMP280;65855;42.030;13.078;2023-02-13T15:30:34;95186.47;;;10.89
76895;BMP280;65855;42.030;13.078;2023-02-13T15:33:03;95181.50;;;10.99
76895;BMP280;65855;42.030;13.078;2023-02-13T15:35:31;95182.75;;;10.96
76895;BMP280;65855;42.030;13.078;2023-02-13T15:37:58;95186.41;;;10.53
76895;BMP280;65855;42.030;13.078;2023-02-13T15:40:31;95189.22;;;10.56
76895;BMP280;65855;42.030;13.078;2023-02-13T15:42:57;95193.94;;;10.48
76895;BMP280;65855;42.030;13.078;2023-02-13T15:45:26;95190.59;;;10.43
76895;BMP280;65855;42.030;13.078;2023-02-13T15:47:53;95193.88;;;10.43
76895;BMP280;65855;42.030;13.078;2023-02-13T15:50:32;95199.78;;;10.32
76895;BMP280;65855;42.030;13.078;2023-02-13T15:52:59;95205.97;;;10.20
76895;BMP280;65855;42.030;13.078;2023-02-13T15:55:30;95204.38;;;9.93
76895;BMP280;65855;42.030;13.078;2023-02-13T15:57:57;95191.72;;;9.88
76895;BMP280;65855;42.030;13.078;2023-02-13T16:00:36;95195.84;;;9.78
76895;BMP280;65855;42.030;13.078;2023-02-13T16:03:06;95203.91;;;9.59
76895;BMP280;65855;42.030;13.078;2023-02-13T16:05:38;95209.78;;;9.48
76895;BMP280;65855;42.030;13.078;2023-02-13T16:08:26;95223.47;;;8.60
76895;BMP280;65855;42.030;13.078;2023-02-13T16:11:37;95227.47;;;8.45
76895;BMP280;65855;42.030;13.078;2023-02-13T16:17:04;95223.72;;;8.20
76895;BMP280;65855;42.030;13.078;2023-02-13T16:19:53;95233.72;;;7.81
76895;BMP280;65855;42.030;13.078;2023-02-13T16:24:54;95240.72;;;7.23
76895;BMP280;65855;42.030;13.078;2023-02-13T16:27:26;95244.06;;;6.66
76895;BMP280;65855;42.030;13.078;2023-02-13T16:29:57;95259.53;;;5.57
76895;BMP280;65855;42.030;13.078;2023-02-13T16:32:35;95259.81;;;5.73
76895;BMP280;65855;42.030;13.078;2023-02-13T16:36:17;95257.94;;;5.86
76895;BMP280;65855;42.030;13.078;2023-02-13T16:38:35;95262.44;;;5.96
76895;BMP280;65855;42.030;13.078;2023-02-13T16:43:46;95268.66;;;5.27
76895;BMP280;65855;42.030;13.078;2023-02-13T16:49:04;95293.31;;;4.14
76895;BMP280;65855;42.030;13.078;2023-02-13T16:54:13;95291.84;;;4.00
76895;BMP280;65855;42.030;13.078;2023-02-13T16:56:44;95293.69;;;4.11
76895;BMP280;65855;42.030;13.078;2023-02-13T17:04:53;95302.47;;;4.32
76895;BMP280;65855;42.030;13.078;2023-02-13T17:07:25;95302.56;;;4.01
76895;BMP280;65855;42.030;13.078;2023-02-13T17:09:53;95305.66;;;3.96
76895;BMP280;65855;42.030;13.078;2023-02-13T17:12:19;95308.69;;;3.98